sensor_id;sensor_type;location;lat;lon;timestamp;P1;durP1;ratioP1;P2;durP2;ratioP2
32780;SDS011;19136;47.032;15.502;2023-12-20T00:01:21;28.13;;;10.68;;
32780;SDS011;19136;47.032;15.502;2023-12-20T00:03:47;27.58;;;10.75;;
32780;SDS011;19136;47.032;15.502;2023-12-20T00:06:12;24.23;;;9.93;;
32780;SDS011;19136;47.032;15.502;2023-12-20T00:08:38;25.52;;;11.05;;
32780;SDS011;19136;47.032;15.502;2023-12-20T00:11:03;26.13;;;10.63;;
32780;SDS011;19136;47.032;15.502;2023-12-20T00:13:29;21.13;;;9.57;;
32780;SDS011;19136;47.032;15.502;2023-12-20T00:15:54;26.50;;;10.70;;
32780;SDS011;19136;47.032;15.502;2023-12-20T00:18:20;24.90;;;10.70;;
32780;SDS011;19136;47.032;15.502;2023-12-20T00:20:45;26.10;;;10.57;;
32780;SDS011;19136;47.032;15.502;2023-12-20T00:23:11;20.58;;;9.38;;
32780;SDS011;19136;47.032;15.502;2023-12-20T00:25:36;24.33;;;8.98;;
32780;SDS011;19136;47.032;15.502;2023-12-20T00:28:02;24.85;;;10.88;;
32780;SDS011;19136;47.032;15.502;2023-12-20T00:30:28;25.60;;;9.82;;
32780;SDS011;19136;47.032;15.502;2023-12-20T00:32:53;21.98;;;9.55;;
32780;SDS011;19136;47.032;15.502;2023-12-20T00:35:19;22.17;;;9.25;;
32780;SDS011;19136;47.032;15.502;2023-12-20T00:37:44;24.05;;;10.25;;
32780;SDS011;19136;47.032;15.502;2023-12-20T00:40:10;26.35;;;9.65;;
32780;SDS011;19136;47.032;15.502;2023-12-20T00:42:36;26.40;;;9.95;;
32780;SDS011;19136;47.032;15.502;2023-12-20T00:45:01;21.60;;;8.93;;
32780;SDS011;19136;47.032;15.502;2023-12-20T00:47:28;26.50;;;9.30;;
32780;SDS011;19136;47.032;15.502;2023-12-20T00:49:53;24.70;;;10.25;;
32780;SDS011;19136;47.032;15.502;2023-12-20T00:52:18;20.70;;;8.85;;
32780;SDS011;19136;47.032;15.502;2023-12-20T00:54:44;21.33;;;8.85;;
32780;SDS011;19136;47.032;15.502;2023-12-20T00:57:10;23.55;;;9.40;;
32780;SDS011;19136;47.032;15.502;2023-12-20T00:59:35;28.90;;;11.57;;
32780;SDS011;19136;47.032;15.502;2023-12-20T01:02:01;19.75;;;8.85;;
32780;SDS011;19136;47.032;15.502;2023-12-20T01:04:26;21.63;;;9.43;;
32780;SDS011;19136;47.032;15.502;2023-12-20T01:06:54;23.80;;;8.15;;
32780;SDS011;19136;47.032;15.502;2023-12-20T01:09:20;18.50;;;9.10;;
32780;SDS011;19136;47.032;15.502;2023-12-20T01:11:48;20.98;;;8.15;;
32780;SDS011;19136;47.032;15.502;2023-12-20T01:14:14;21.67;;;9.05;;
32780;SDS011;19136;47.032;15.502;2023-12-20T01:16:39;22.02;;;8.32;;
32780;SDS011;19136;47.032;15.502;2023-12-20T01:19:05;18.05;;;9.00;;
32780;SDS011;19136;47.032;15.502;2023-12-20T01:21:30;24.60;;;9.77;;
32780;SDS011;19136;47.032;15.502;2023-12-20T01:23:56;18.77;;;8.45;;
32780;SDS011;19136;47.032;15.502;2023-12-20T01:26:21;23.85;;;9.52;;
32780;SDS011;19136;47.032;15.502;2023-12-20T01:28:49;22.25;;;9.20;;
32780;SDS011;19136;47.032;15.502;2023-12-20T01:31:14;17.00;;;8.45;;
32780;SDS011;19136;47.032;15.502;2023-12-20T01:33:40;24.35;;;8.98;;
32780;SDS011;19136;47.032;15.502;2023-12-20T01:36:05;21.20;;;9.13;;
32780;SDS011;19136;47.032;15.502;2023-12-20T01:38:31;19.92;;;8.93;;
32780;SDS011;19136;47.032;15.502;2023-12-20T01:40:57;20.10;;;8.70;;
32780;SDS011;19136;47.032;15.502;2023-12-20T01:43:23;16.98;;;8.05;;
32780;SDS011;19136;47.032;15.502;2023-12-20T01:45:48;15.25;;;7.32;;
32780;SDS011;19136;47.032;15.502;2023-12-20T01:48:14;17.75;;;8.50;;
32780;SDS011;19136;47.032;15.502;2023-12-20T01:50:41;20.42;;;9.63;;
32780;SDS011;19136;47.032;15.502;2023-12-20T01:53:08;20.35;;;8.18;;
32780;SDS011;19136;47.032;15.502;2023-12-20T01:55:36;21.38;;;8.65;;
32780;SDS011;19136;47.032;15.502;2023-12-20T01:58:04;19.95;;;8.30;;
32780;SDS011;19136;47.032;15.502;2023-12-20T02:00:30;15.10;;;7.38;;
32780;SDS011;19136;47.032;15.502;2023-12-20T02:02:55;24.35;;;7.85;;
32780;SDS011;19136;47.032;15.502;2023-12-20T02:05:24;25.27;;;8.32;;
32780;SDS011;19136;47.032;15.502;2023-12-20T02:07:53;21.88;;;7.93;;
32780;SDS011;19136;47.032;15.502;2023-12-20T02:10:18;19.38;;;8.43;;
32780;SDS011;19136;47.032;15.502;2023-12-20T02:12:44;16.95;;;8.00;;
32780;SDS011;19136;47.032;15.502;2023-12-20T02:15:10;16.42;;;7.70;;
32780;SDS011;19136;47.032;15.502;2023-12-20T02:17:36;17.20;;;7.47;;
32780;SDS011;19136;47.032;15.502;2023-12-20T02:20:01;17.48;;;7.03;;
32780;SDS011;19136;47.032;15.502;2023-12-20T02:22:27;16.92;;;6.85;;
32780;SDS011;19136;47.032;15.502;2023-12-20T02:24:55;15.60;;;6.65;;
32780;SDS011;19136;47.032;15.502;2023-12-20T02:27:20;21.02;;;7.25;;
32780;SDS011;19136;47.032;15.502;2023-12-20T02:29:48;15.50;;;6.38;;
32780;SDS011;19136;47.032;15.502;2023-12-20T02:32:13;16.23;;;7.07;;
32780;SDS011;19136;47.032;15.502;2023-12-20T02:34:39;15.07;;;7.20;;
32780;SDS011;19136;47.032;15.502;2023-12-20T02:37:04;14.43;;;6.90;;
32780;SDS011;19136;47.032;15.502;2023-12-20T02:39:30;12.50;;;6.30;;
32780;SDS011;19136;47.032;15.502;2023-12-20T02:41:55;15.35;;;6.13;;
32780;SDS011;19136;47.032;15.502;2023-12-20T02:44:21;17.42;;;7.20;;
32780;SDS011;19136;47.032;15.502;2023-12-20T02:46:46;16.13;;;6.82;;
32780;SDS011;19136;47.032;15.502;2023-12-20T02:49:12;13.63;;;6.05;;
32780;SDS011;19136;47.032;15.502;2023-12-20T02:51:37;15.20;;;6.63;;
32780;SDS011;19136;47.032;15.502;2023-12-20T02:54:06;17.55;;;6.85;;
32780;SDS011;19136;47.032;15.502;2023-12-20T02:56:32;14.77;;;6.40;;
32780;SDS011;19136;47.032;15.502;2023-12-20T02:58:57;15.52;;;6.10;;
32780;SDS011;19136;47.032;15.502;2023-12-20T03:01:23;18.20;;;7.03;;
32780;SDS011;19136;47.032;15.502;2023-12-20T03:03:48;14.45;;;6.32;;
32780;SDS011;19136;47.032;15.502;2023-12-20T03:06:20;15.00;;;6.28;;
32780;SDS011;19136;47.032;15.502;2023-12-20T03:08:46;13.25;;;6.20;;
32780;SDS011;19136;47.032;15.502;2023-12-20T03:11:11;14.07;;;5.65;;
32780;SDS011;19136;47.032;15.502;2023-12-20T03:13:36;14.13;;;5.78;;
32780;SDS011;19136;47.032;15.502;2023-12-20T03:16:12;15.02;;;6.57;;
32780;SDS011;19136;47.032;15.502;2023-12-20T03:18:38;15.52;;;5.72;;
32780;SDS011;19136;47.032;15.502;2023-12-20T03:21:04;13.90;;;6.63;;
32780;SDS011;19136;47.032;15.502;2023-12-20T03:23:30;15.15;;;5.88;;
32780;SDS011;19136;47.032;15.502;2023-12-20T03:25:56;14.60;;;5.47;;
32780;SDS011;19136;47.032;15.502;2023-12-20T03:28:21;14.25;;;5.95;;
32780;SDS011;19136;47.032;15.502;2023-12-20T03:30:48;21.35;;;6.65;;
32780;SDS011;19136;47.032;15.502;2023-12-20T03:33:13;11.35;;;5.75;;
32780;SDS011;19136;47.032;15.502;2023-12-20T03:35:39;15.90;;;6.30;;
32780;SDS011;19136;47.032;15.502;2023-12-20T03:38:04;16.52;;;5.93;;
32780;SDS011;19136;47.032;15.502;2023-12-20T03:40:30;12.05;;;6.03;;
32780;SDS011;19136;47.032;15.502;2023-12-20T03:42:55;17.40;;;6.03;;
32780;SDS011;19136;47.032;15.502;2023-12-20T03:45:20;15.63;;;6.53;;
32780;SDS011;19136;47.032;15.502;2023-12-20T03:47:46;14.27;;;6.47;;
32780;SDS011;19136;47.032;15.502;2023-12-20T03:50:12;17.10;;;6.60;;
32780;SDS011;19136;47.032;15.502;2023-12-20T03:52:37;16.75;;;6.22;;
32780;SDS011;19136;47.032;15.502;2023-12-20T03:55:03;17.77;;;6.00;;
32780;SDS011;19136;47.032;15.502;2023-12-20T03:57:28;16.05;;;5.90;;
32780;SDS011;19136;47.032;15.502;2023-12-20T03:59:54;14.50;;;6.22;;
32780;SDS011;19136;47.032;15.502;2023-12-20T04:02:19;16.73;;;6.10;;
32780;SDS011;19136;47.032;15.502;2023-12-20T04:04:45;11.90;;;6.32;;
32780;SDS011;19136;47.032;15.502;2023-12-20T04:07:10;19.92;;;7.03;;
32780;SDS011;19136;47.032;15.502;2023-12-20T04:09:36;17.23;;;6.35;;
32780;SDS011;19136;47.032;15.502;2023-12-20T04:12:01;11.68;;;6.03;;
32780;SDS011;19136;47.032;15.502;2023-12-20T04:14:27;17.92;;;6.45;;
32780;SDS011;19136;47.032;15.502;2023-12-20T04:16:53;13.27;;;5.80;;
32780;SDS011;19136;47.032;15.502;2023-12-20T04:19:18;11.85;;;6.03;;
32780;SDS011;19136;47.032;15.502;2023-12-20T04:21:44;11.55;;;5.68;;
32780;SDS011;19136;47.032;15.502;2023-12-20T04:24:09;19.55;;;5.88;;
32780;SDS011;19136;47.032;15.502;2023-12-20T04:26:35;16.10;;;6.05;;
32780;SDS011;19136;47.032;15.502;2023-12-20T04:29:00;12.23;;;5.97;;
32780;SDS011;19136;47.032;15.502;2023-12-20T04:31:26;17.73;;;5.95;;
32780;SDS011;19136;47.032;15.502;2023-12-20T04:33:56;12.40;;;6.10;;
32780;SDS011;19136;47.032;15.502;2023-12-20T04:36:22;19.85;;;7.30;;
32780;SDS011;19136;47.032;15.502;2023-12-20T04:38:47;15.85;;;7.15;;
32780;SDS011;19136;47.032;15.502;2023-12-20T04:41:13;15.48;;;6.38;;
32780;SDS011;19136;47.032;15.502;2023-12-20T04:43:41;13.38;;;6.07;;
32780;SDS011;19136;47.032;15.502;2023-12-20T04:46:06;15.82;;;7.32;;
32780;SDS011;19136;47.032;15.502;2023-12-20T04:48:32;17.15;;;6.90;;
32780;SDS011;19136;47.032;15.502;2023-12-20T04:50:57;17.40;;;6.35;;
32780;SDS011;19136;47.032;15.502;2023-12-20T04:53:23;11.45;;;6.28;;
32780;SDS011;19136;47.032;15.502;2023-12-20T04:55:48;12.27;;;6.40;;
32780;SDS011;19136;47.032;15.502;2023-12-20T04:58:14;15.73;;;6.70;;
32780;SDS011;19136;47.032;15.502;2023-12-20T05:00:39;17.10;;;5.95;;
32780;SDS011;19136;47.032;15.502;2023-12-20T05:03:05;14.30;;;6.43;;
32780;SDS011;19136;47.032;15.502;2023-12-20T05:05:30;13.20;;;6.60;;
32780;SDS011;19136;47.032;15.502;2023-12-20T05:07:57;17.55;;;6.93;;
32780;SDS011;19136;47.032;15.502;2023-12-20T05:10:22;15.38;;;6.53;;
32780;SDS011;19136;47.032;15.502;2023-12-20T05:12:52;19.02;;;7.63;;
32780;SDS011;19136;47.032;15.502;2023-12-20T05:15:17;16.85;;;6.93;;
32780;SDS011;19136;47.032;15.502;2023-12-20T05:17:43;13.98;;;6.38;;
32780;SDS011;19136;47.032;15.502;2023-12-20T05:20:08;16.40;;;5.78;;
32780;SDS011;19136;47.032;15.502;2023-12-20T05:22:34;21.00;;;6.45;;
32780;SDS011;19136;47.032;15.502;2023-12-20T05:24:59;18.45;;;7.32;;
32780;SDS011;19136;47.032;15.502;2023-12-20T05:27:24;13.70;;;7.00;;
32780;SDS011;19136;47.032;15.502;2023-12-20T05:29:50;15.18;;;6.97;;
32780;SDS011;19136;47.032;15.502;2023-12-20T05:32:15;21.55;;;7.68;;
32780;SDS011;19136;47.032;15.502;2023-12-20T05:34:41;17.10;;;7.43;;
32780;SDS011;19136;47.032;15.502;2023-12-20T05:37:06;17.48;;;6.65;;
32780;SDS011;19136;47.032;15.502;2023-12-20T05:39:32;14.00;;;6.40;;
32780;SDS011;19136;47.032;15.502;2023-12-20T05:41:57;19.73;;;7.18;;
32780;SDS011;19136;47.032;15.502;2023-12-20T05:44:23;18.85;;;7.30;;
32780;SDS011;19136;47.032;15.502;2023-12-20T05:46:48;19.85;;;7.97;;
32780;SDS011;19136;47.032;15.502;2023-12-20T05:49:13;23.52;;;8.32;;
32780;SDS011;19136;47.032;15.502;2023-12-20T05:51:39;23.55;;;8.90;;
32780;SDS011;19136;47.032;15.502;2023-12-20T05:54:04;21.50;;;8.95;;
32780;SDS011;19136;47.032;15.502;2023-12-20T05:56:30;19.77;;;8.20;;
32780;SDS011;19136;47.032;15.502;2023-12-20T05:58:55;25.88;;;8.95;;
32780;SDS011;19136;47.032;15.502;2023-12-20T06:01:21;17.90;;;8.95;;
32780;SDS011;19136;47.032;15.502;2023-12-20T06:03:46;23.98;;;9.18;;
32780;SDS011;19136;47.032;15.502;2023-12-20T06:06:12;15.80;;;7.78;;
32780;SDS011;19136;47.032;15.502;2023-12-20T06:08:40;23.58;;;7.82;;
32780;SDS011;19136;47.032;15.502;2023-12-20T06:11:06;23.23;;;7.90;;
32780;SDS011;19136;47.032;15.502;2023-12-20T06:13:31;17.98;;;7.78;;
32780;SDS011;19136;47.032;15.502;2023-12-20T06:15:57;23.70;;;9.57;;
32780;SDS011;19136;47.032;15.502;2023-12-20T06:18:22;20.63;;;8.50;;
32780;SDS011;19136;47.032;15.502;2023-12-20T06:20:48;18.85;;;7.82;;
32780;SDS011;19136;47.032;15.502;2023-12-20T06:23:13;18.55;;;8.32;;
32780;SDS011;19136;47.032;15.502;2023-12-20T06:25:39;16.10;;;7.13;;
32780;SDS011;19136;47.032;15.502;2023-12-20T06:28:05;15.82;;;7.70;;
32780;SDS011;19136;47.032;15.502;2023-12-20T06:30:30;19.20;;;7.78;;
32780;SDS011;19136;47.032;15.502;2023-12-20T06:32:57;17.42;;;7.40;;
32780;SDS011;19136;47.032;15.502;2023-12-20T06:35:23;16.50;;;8.20;;
32780;SDS011;19136;47.032;15.502;2023-12-20T06:37:49;17.58;;;7.85;;
32780;SDS011;19136;47.032;15.502;2023-12-20T06:40:14;20.85;;;8.25;;
32780;SDS011;19136;47.032;15.502;2023-12-20T06:42:41;18.27;;;7.35;;
32780;SDS011;19136;47.032;15.502;2023-12-20T06:45:06;15.95;;;6.57;;
32780;SDS011;19136;47.032;15.502;2023-12-20T06:47:32;20.23;;;7.60;;
32780;SDS011;19136;47.032;15.502;2023-12-20T06:49:57;16.48;;;7.82;;
32780;SDS011;19136;47.032;15.502;2023-12-20T06:52:23;16.10;;;7.32;;
32780;SDS011;19136;47.032;15.502;2023-12-20T06:54:48;18.20;;;8.18;;
32780;SDS011;19136;47.032;15.502;2023-12-20T06:57:14;18.77;;;7.70;;
32780;SDS011;19136;47.032;15.502;2023-12-20T06:59:40;15.13;;;7.70;;
32780;SDS011;19136;47.032;15.502;2023-12-20T07:02:05;15.57;;;7.65;;
32780;SDS011;19136;47.032;15.502;2023-12-20T07:04:31;15.68;;;7.60;;
32780;SDS011;19136;47.032;15.502;2023-12-20T07:06:56;16.40;;;7.60;;
32780;SDS011;19136;47.032;15.502;2023-12-20T07:09:25;18.42;;;8.35;;
32780;SDS011;19136;47.032;15.502;2023-12-20T07:11:51;22.23;;;8.15;;
32780;SDS011;19136;47.032;15.502;2023-12-20T07:14:16;23.42;;;9.20;;
32780;SDS011;19136;47.032;15.502;2023-12-20T07:16:42;20.92;;;8.93;;
32780;SDS011;19136;47.032;15.502;2023-12-20T07:19:10;21.85;;;10.60;;
32780;SDS011;19136;47.032;15.502;2023-12-20T07:21:36;24.08;;;10.50;;
32780;SDS011;19136;47.032;15.502;2023-12-20T07:24:01;21.38;;;10.23;;
32780;SDS011;19136;47.032;15.502;2023-12-20T07:26:27;24.80;;;10.95;;
32780;SDS011;19136;47.032;15.502;2023-12-20T07:28:52;32.40;;;12.52;;
32780;SDS011;19136;47.032;15.502;2023-12-20T07:31:18;28.95;;;12.48;;
32780;SDS011;19136;47.032;15.502;2023-12-20T07:33:43;28.90;;;13.32;;
32780;SDS011;19136;47.032;15.502;2023-12-20T07:36:09;27.35;;;11.98;;
32780;SDS011;19136;47.032;15.502;2023-12-20T07:38:34;27.55;;;10.95;;
32780;SDS011;19136;47.032;15.502;2023-12-20T07:41:03;29.20;;;10.88;;
32780;SDS011;19136;47.032;15.502;2023-12-20T07:43:28;25.98;;;11.02;;
32780;SDS011;19136;47.032;15.502;2023-12-20T07:45:54;29.73;;;11.40;;
32780;SDS011;19136;47.032;15.502;2023-12-20T07:48:19;30.90;;;11.68;;
32780;SDS011;19136;47.032;15.502;2023-12-20T07:50:45;23.25;;;11.52;;
32780;SDS011;19136;47.032;15.502;2023-12-20T07:53:10;27.25;;;11.73;;
32780;SDS011;19136;47.032;15.502;2023-12-20T07:55:35;25.48;;;11.60;;
32780;SDS011;19136;47.032;15.502;2023-12-20T07:58:01;27.52;;;12.27;;
32780;SDS011;19136;47.032;15.502;2023-12-20T08:00:27;26.73;;;12.13;;
32780;SDS011;19136;47.032;15.502;2023-12-20T08:02:53;25.10;;;11.77;;
32780;SDS011;19136;47.032;15.502;2023-12-20T08:05:18;28.98;;;11.23;;
32780;SDS011;19136;47.032;15.502;2023-12-20T08:07:44;29.90;;;12.00;;
32780;SDS011;19136;47.032;15.502;2023-12-20T08:10:09;34.30;;;14.82;;
32780;SDS011;19136;47.032;15.502;2023-12-20T08:12:37;33.45;;;12.60;;
32780;SDS011;19136;47.032;15.502;2023-12-20T08:15:05;28.05;;;13.32;;
32780;SDS011;19136;47.032;15.502;2023-12-20T08:17:30;35.67;;;13.10;;
32780;SDS011;19136;47.032;15.502;2023-12-20T08:19:56;30.60;;;14.60;;
32780;SDS011;19136;47.032;15.502;2023-12-20T08:22:21;28.70;;;14.40;;
32780;SDS011;19136;47.032;15.502;2023-12-20T08:24:47;30.17;;;15.05;;
32780;SDS011;19136;47.032;15.502;2023-12-20T08:27:13;34.72;;;15.77;;
32780;SDS011;19136;47.032;15.502;2023-12-20T08:29:38;32.92;;;16.55;;
32780;SDS011;19136;47.032;15.502;2023-12-20T08:32:04;34.88;;;14.90;;
32780;SDS011;19136;47.032;15.502;2023-12-20T08:34:29;33.40;;;14.07;;
32780;SDS011;19136;47.032;15.502;2023-12-20T08:36:55;36.20;;;15.32;;
32780;SDS011;19136;47.032;15.502;2023-12-20T08:39:21;30.98;;;14.18;;
32780;SDS011;19136;47.032;15.502;2023-12-20T08:41:46;38.40;;;14.90;;
32780;SDS011;19136;47.032;15.502;2023-12-20T08:44:12;40.00;;;15.00;;
32780;SDS011;19136;47.032;15.502;2023-12-20T08:46:37;29.08;;;13.95;;
32780;SDS011;19136;47.032;15.502;2023-12-20T08:49:03;31.13;;;13.70;;
32780;SDS011;19136;47.032;15.502;2023-12-20T08:51:30;31.80;;;14.00;;
32780;SDS011;19136;47.032;15.502;2023-12-20T08:53:55;31.27;;;13.52;;
32780;SDS011;19136;47.032;15.502;2023-12-20T08:56:21;32.75;;;15.25;;
32780;SDS011;19136;47.032;15.502;2023-12-20T08:58:46;36.95;;;15.70;;
32780;SDS011;19136;47.032;15.502;2023-12-20T09:01:12;28.70;;;13.82;;
32780;SDS011;19136;47.032;15.502;2023-12-20T09:03:38;33.35;;;14.85;;
32780;SDS011;19136;47.032;15.502;2023-12-20T09:06:04;34.22;;;15.02;;
32780;SDS011;19136;47.032;15.502;2023-12-20T09:08:30;32.47;;;14.73;;
32780;SDS011;19136;47.032;15.502;2023-12-20T09:10:56;29.80;;;14.15;;
32780;SDS011;19136;47.032;15.502;2023-12-20T09:13:21;30.27;;;15.98;;
32780;SDS011;19136;47.032;15.502;2023-12-20T09:15:54;34.47;;;14.27;;
32780;SDS011;19136;47.032;15.502;2023-12-20T09:18:20;33.15;;;14.18;;
32780;SDS011;19136;47.032;15.502;2023-12-20T09:20:49;31.05;;;14.63;;
32780;SDS011;19136;47.032;15.502;2023-12-20T09:23:14;32.47;;;14.90;;
32780;SDS011;19136;47.032;15.502;2023-12-20T09:25:43;39.45;;;19.10;;
32780;SDS011;19136;47.032;15.502;2023-12-20T09:28:08;82.82;;;32.45;;
32780;SDS011;19136;47.032;15.502;2023-12-20T09:30:34;38.08;;;17.55;;
32780;SDS011;19136;47.032;15.502;2023-12-20T09:33:03;34.53;;;15.55;;
32780;SDS011;19136;47.032;15.502;2023-12-20T09:35:31;34.67;;;14.98;;
32780;SDS011;19136;47.032;15.502;2023-12-20T09:37:57;38.08;;;15.27;;
32780;SDS011;19136;47.032;15.502;2023-12-20T09:40:22;27.48;;;13.68;;
32780;SDS011;19136;47.032;15.502;2023-12-20T09:45:22;38.13;;;14.32;;
32780;SDS011;19136;47.032;15.502;2023-12-20T09:47:48;30.17;;;14.00;;
32780;SDS011;19136;47.032;15.502;2023-12-20T09:50:14;34.72;;;14.45;;
32780;SDS011;19136;47.032;15.502;2023-12-20T09:52:40;28.67;;;12.45;;
32780;SDS011;19136;47.032;15.502;2023-12-20T09:55:11;30.35;;;12.00;;
32780;SDS011;19136;47.032;15.502;2023-12-20T09:57:44;33.97;;;13.07;;
32780;SDS011;19136;47.032;15.502;2023-12-20T10:00:21;23.67;;;11.63;;
32780;SDS011;19136;47.032;15.502;2023-12-20T10:03:02;32.40;;;14.35;;
32780;SDS011;19136;47.032;15.502;2023-12-20T10:05:33;38.35;;;17.63;;
32780;SDS011;19136;47.032;15.502;2023-12-20T10:07:59;28.55;;;13.27;;
32780;SDS011;19136;47.032;15.502;2023-12-20T10:10:28;31.85;;;12.98;;
32780;SDS011;19136;47.032;15.502;2023-12-20T10:13:22;32.22;;;13.85;;
32780;SDS011;19136;47.032;15.502;2023-12-20T10:15:49;35.25;;;15.23;;
32780;SDS011;19136;47.032;15.502;2023-12-20T10:18:17;21.02;;;10.63;;
32780;SDS011;19136;47.032;15.502;2023-12-20T10:20:43;20.88;;;10.68;;
32780;SDS011;19136;47.032;15.502;2023-12-20T10:23:10;24.75;;;11.23;;
32780;SDS011;19136;47.032;15.502;2023-12-20T10:25:36;25.83;;;11.25;;
32780;SDS011;19136;47.032;15.502;2023-12-20T10:28:14;24.98;;;11.30;;
32780;SDS011;19136;47.032;15.502;2023-12-20T10:30:42;20.95;;;10.63;;
32780;SDS011;19136;47.032;15.502;2023-12-20T10:33:08;21.70;;;10.98;;
32780;SDS011;19136;47.032;15.502;2023-12-20T10:35:35;26.70;;;11.20;;
32780;SDS011;19136;47.032;15.502;2023-12-20T10:38:03;40.65;;;12.60;;
32780;SDS011;19136;47.032;15.502;2023-12-20T10:40:28;27.73;;;11.77;;
32780;SDS011;19136;47.032;15.502;2023-12-20T10:42:55;48.08;;;9.63;;
32780;SDS011;19136;47.032;15.502;2023-12-20T10:45:21;29.90;;;11.48;;
32780;SDS011;19136;47.032;15.502;2023-12-20T10:47:47;28.02;;;10.38;;
32780;SDS011;19136;47.032;15.502;2023-12-20T10:50:14;33.83;;;10.57;;
32780;SDS011;19136;47.032;15.502;2023-12-20T10:52:40;24.95;;;10.27;;
32780;SDS011;19136;47.032;15.502;2023-12-20T10:55:06;23.42;;;9.98;;
32780;SDS011;19136;47.032;15.502;2023-12-20T10:57:32;26.75;;;9.68;;
32780;SDS011;19136;47.032;15.502;2023-12-20T10:59:59;27.23;;;8.70;;
32780;SDS011;19136;47.032;15.502;2023-12-20T11:02:26;19.98;;;7.65;;
32780;SDS011;19136;47.032;15.502;2023-12-20T11:05:16;14.40;;;7.07;;
32780;SDS011;19136;47.032;15.502;2023-12-20T11:07:50;18.80;;;7.00;;
32780;SDS011;19136;47.032;15.502;2023-12-20T11:10:23;12.07;;;6.40;;
32780;SDS011;19136;47.032;15.502;2023-12-20T11:12:54;14.90;;;6.63;;
32780;SDS011;19136;47.032;15.502;2023-12-20T11:15:22;21.15;;;6.35;;
32780;SDS011;19136;47.032;15.502;2023-12-20T11:17:56;20.20;;;6.43;;
32780;SDS011;19136;47.032;15.502;2023-12-20T11:20:23;20.40;;;6.63;;
32780;SDS011;19136;47.032;15.502;2023-12-20T11:22:52;12.07;;;6.03;;
32780;SDS011;19136;47.032;15.502;2023-12-20T11:25:17;20.88;;;6.60;;
32780;SDS011;19136;47.032;15.502;2023-12-20T11:27:43;16.13;;;6.35;;
32780;SDS011;19136;47.032;15.502;2023-12-20T11:30:13;21.67;;;7.07;;
32780;SDS011;19136;47.032;15.502;2023-12-20T11:32:39;15.18;;;7.18;;
32780;SDS011;19136;47.032;15.502;2023-12-20T11:37:37;13.80;;;6.75;;
32780;SDS011;19136;47.032;15.502;2023-12-20T11:40:04;17.85;;;6.50;;
32780;SDS011;19136;47.032;15.502;2023-12-20T11:42:40;17.73;;;7.30;;
32780;SDS011;19136;47.032;15.502;2023-12-20T11:45:08;22.38;;;7.07;;
32780;SDS011;19136;47.032;15.502;2023-12-20T11:47:33;15.52;;;6.05;;
32780;SDS011;19136;47.032;15.502;2023-12-20T11:50:00;20.52;;;6.82;;
32780;SDS011;19136;47.032;15.502;2023-12-20T11:52:28;20.42;;;7.57;;
32780;SDS011;19136;47.032;15.502;2023-12-20T11:54:54;24.17;;;7.65;;
32780;SDS011;19136;47.032;15.502;2023-12-20T11:57:19;16.33;;;7.50;;
32780;SDS011;19136;47.032;15.502;2023-12-20T11:59:45;21.15;;;8.38;;
32780;SDS011;19136;47.032;15.502;2023-12-20T12:02:14;21.17;;;7.95;;
32780;SDS011;19136;47.032;15.502;2023-12-20T12:04:42;28.95;;;10.20;;
32780;SDS011;19136;47.032;15.502;2023-12-20T12:07:07;25.90;;;8.88;;
32780;SDS011;19136;47.032;15.502;2023-12-20T12:09:34;27.75;;;8.70;;
32780;SDS011;19136;47.032;15.502;2023-12-20T12:11:59;23.67;;;9.32;;
32780;SDS011;19136;47.032;15.502;2023-12-20T12:14:25;29.38;;;10.10;;
32780;SDS011;19136;47.032;15.502;2023-12-20T12:16:50;31.90;;;9.93;;
32780;SDS011;19136;47.032;15.502;2023-12-20T12:19:25;31.40;;;10.52;;
32780;SDS011;19136;47.032;15.502;2023-12-20T12:21:51;24.15;;;9.65;;
32780;SDS011;19136;47.032;15.502;2023-12-20T12:24:19;30.65;;;10.35;;
32780;SDS011;19136;47.032;15.502;2023-12-20T12:26:49;35.55;;;14.23;;
32780;SDS011;19136;47.032;15.502;2023-12-20T12:29:15;38.80;;;13.27;;
32780;SDS011;19136;47.032;15.502;2023-12-20T12:31:40;42.88;;;19.05;;
32780;SDS011;19136;47.032;15.502;2023-12-20T12:34:06;52.97;;;18.63;;
32780;SDS011;19136;47.032;15.502;2023-12-20T12:36:34;44.50;;;18.25;;
32780;SDS011;19136;47.032;15.502;2023-12-20T12:39:02;49.08;;;22.02;;
32780;SDS011;19136;47.032;15.502;2023-12-20T12:41:29;47.65;;;18.83;;
32780;SDS011;19136;47.032;15.502;2023-12-20T12:43:54;41.63;;;18.65;;
32780;SDS011;19136;47.032;15.502;2023-12-20T12:46:20;35.80;;;13.43;;
32780;SDS011;19136;47.032;15.502;2023-12-20T12:48:45;35.35;;;12.52;;
32780;SDS011;19136;47.032;15.502;2023-12-20T12:51:11;43.30;;;12.30;;
32780;SDS011;19136;47.032;15.502;2023-12-20T12:53:39;36.38;;;11.30;;
32780;SDS011;19136;47.032;15.502;2023-12-20T12:56:07;34.78;;;12.25;;
32780;SDS011;19136;47.032;15.502;2023-12-20T12:58:33;37.38;;;12.00;;
32780;SDS011;19136;47.032;15.502;2023-12-20T13:01:00;49.40;;;12.95;;
32780;SDS011;19136;47.032;15.502;2023-12-20T13:03:26;30.27;;;12.15;;
32780;SDS011;19136;47.032;15.502;2023-12-20T13:05:53;31.38;;;12.25;;
32780;SDS011;19136;47.032;15.502;2023-12-20T13:08:19;31.23;;;13.13;;
32780;SDS011;19136;47.032;15.502;2023-12-20T13:10:44;36.75;;;13.63;;
32780;SDS011;19136;47.032;15.502;2023-12-20T13:13:10;31.83;;;12.73;;
32780;SDS011;19136;47.032;15.502;2023-12-20T13:15:35;31.65;;;12.00;;
32780;SDS011;19136;47.032;15.502;2023-12-20T13:18:01;32.53;;;12.95;;
32780;SDS011;19136;47.032;15.502;2023-12-20T13:20:27;41.70;;;12.68;;
32780;SDS011;19136;47.032;15.502;2023-12-20T13:22:53;32.95;;;12.50;;
32780;SDS011;19136;47.032;15.502;2023-12-20T13:25:18;30.13;;;11.93;;
32780;SDS011;19136;47.032;15.502;2023-12-20T13:27:44;36.33;;;13.60;;
32780;SDS011;19136;47.032;15.502;2023-12-20T13:30:09;41.60;;;13.88;;
32780;SDS011;19136;47.032;15.502;2023-12-20T13:32:35;34.00;;;12.73;;
32780;SDS011;19136;47.032;15.502;2023-12-20T13:35:01;36.80;;;12.98;;
32780;SDS011;19136;47.032;15.502;2023-12-20T13:37:26;41.42;;;12.32;;
32780;SDS011;19136;47.032;15.502;2023-12-20T13:39:52;45.15;;;12.98;;
32780;SDS011;19136;47.032;15.502;2023-12-20T13:42:17;40.58;;;14.20;;
32780;SDS011;19136;47.032;15.502;2023-12-20T13:44:45;31.40;;;12.75;;
32780;SDS011;19136;47.032;15.502;2023-12-20T13:47:12;36.08;;;14.55;;
32780;SDS011;19136;47.032;15.502;2023-12-20T13:49:37;40.70;;;14.40;;
32780;SDS011;19136;47.032;15.502;2023-12-20T13:52:03;30.08;;;13.05;;
32780;SDS011;19136;47.032;15.502;2023-12-20T13:54:29;32.95;;;15.00;;
32780;SDS011;19136;47.032;15.502;2023-12-20T13:56:55;31.00;;;13.05;;
32780;SDS011;19136;47.032;15.502;2023-12-20T13:59:20;31.52;;;11.80;;
32780;SDS011;19136;47.032;15.502;2023-12-20T14:01:46;40.08;;;13.95;;
32780;SDS011;19136;47.032;15.502;2023-12-20T14:04:11;45.60;;;13.40;;
32780;SDS011;19136;47.032;15.502;2023-12-20T14:06:37;45.80;;;13.32;;
32780;SDS011;19136;47.032;15.502;2023-12-20T14:09:02;41.40;;;12.98;;
32780;SDS011;19136;47.032;15.502;2023-12-20T14:11:28;43.17;;;15.90;;
32780;SDS011;19136;47.032;15.502;2023-12-20T14:13:54;43.15;;;18.10;;
32780;SDS011;19136;47.032;15.502;2023-12-20T14:16:26;44.70;;;18.77;;